Time;durP1;ratioP1;P1;durP2;ratioP2;P2;SDS_P1;SDS_P2;PMS_P1;PMS_P2;Temp;Humidity;BMP_temperature;BMP_pressure;BME280_temperature;BME280_humidity;BME280_pressure;Samples;Min_cycle;Max_cycle;Signal;HPM_P1;HPM_P2
2023/11/25 00:01:57;;;;;;;0.60;0.20;;;;;;;;;;4972828;28;20039;-50
2023/11/25 00:04:23;;;;;;;0.03;0.00;;;;;;;;;;4972492;28;20097;-54
2023/11/25 00:06:49;;;;;;;0.15;0.10;;;;;;;;;;4972809;28;20026;-53
2023/11/25 00:09:15;;;;;;;0.25;0.10;;;;;;;;;;4972616;28;20101;-50
2023/11/25 00:11:42;;;;;;;0.10;0.00;;;;;;;;;;4972931;28;20058;-53
2023/11/25 00:14:08;;;;;;;1.15;0.08;;;;;;;;;;4972685;28;20393;-54
2023/11/25 00:16:34;;;;;;;0.10;0.00;;;;;;;;;;4972552;28;20042;-53
2023/11/25 00:19:00;;;;;;;1.77;0.10;;;;;;;;;;4972614;28;20030;-54
2023/11/25 00:21:26;;;;;;;0.40;0.10;;;;;;;;;;4972508;28;20164;-55
2023/11/25 00:23:52;;;;;;;0.43;0.17;;;;;;;;;;4972645;28;20085;-54
2023/11/25 00:26:19;;;;;;;0.52;0.10;;;;;;;;;;4972587;28;20030;-51
2023/11/25 00:28:45;;;;;;;0.20;0.03;;;;;;;;;;4971603;28;20412;-53
2023/11/25 00:31:11;;;;;;;0.50;0.10;;;;;;;;;;4971423;28;20527;-52
2023/11/25 00:33:37;;;;;;;1.65;0.10;;;;;;;;;;4971974;28;20058;-50
2023/11/25 00:36:03;;;;;;;3.70;0.10;;;;;;;;;;4972792;28;20027;-50
2023/11/25 00:38:29;;;;;;;0.52;0.00;;;;;;;;;;4972546;28;20023;-49
2023/11/25 00:40:55;;;;;;;0.38;0.10;;;;;;;;;;4972237;28;20377;-54
2023/11/25 00:43:21;;;;;;;0.20;0.00;;;;;;;;;;4972381;28;20027;-51
2023/11/25 00:45:49;;;;;;;0.55;0.20;;;;;;;;;;4954858;28;20342;-54
2023/11/25 00:48:16;;;;;;;0.90;0.43;;;;;;;;;;4971414;28;20026;-54
2023/11/25 00:50:42;;;;;;;1.65;0.10;;;;;;;;;;4972293;28;20027;-53
2023/11/25 00:53:08;;;;;;;1.23;0.00;;;;;;;;;;4972199;28;20175;-52
2023/11/25 00:55:33;;;;;;;0.20;0.10;;;;;;;;;;4973396;28;20058;-51
2023/11/25 00:57:59;;;;;;;0.10;0.00;;;;;;;;;;4976077;28;20074;-53
2023/11/25 01:00:26;;;;;;;0.08;0.00;;;;;;;;;;4969868;28;20035;-53
2023/11/25 01:02:54;;;;;;;0.25;0.00;;;;;;;;;;4976088;28;20034;-50
2023/11/25 01:05:20;;;;;;;0.22;0.10;;;;;;;;;;4975933;28;20038;-53
2023/11/25 01:07:46;;;;;;;0.38;0.00;;;;;;;;;;4976035;28;20033;-51
2023/11/25 01:10:12;;;;;;;0.90;0.00;;;;;;;;;;4958404;28;20011;-54
2023/11/25 01:12:38;;;;;;;0.00;0.00;;;;;;;;;;4976258;28;20058;-53
2023/11/25 01:15:04;;;;;;;0.00;0.00;;;;;;;;;;4976268;28;20054;-55
2023/11/25 01:17:31;;;;;;;0.22;0.00;;;;;;;;;;4975817;28;20037;-52
2023/11/25 01:19:58;;;;;;;0.50;0.00;;;;;;;;;;4975812;28;20022;-53
2023/11/25 01:22:24;;;;;;;0.98;0.00;;;;;;;;;;4975661;28;20034;-51
2023/11/25 01:24:51;;;;;;;0.05;0.00;;;;;;;;;;4975621;28;20019;-50
2023/11/25 01:27:17;;;;;;;0.00;0.00;;;;;;;;;;4975609;28;20540;-53
2023/11/25 01:29:43;;;;;;;0.20;0.00;;;;;;;;;;4941772;28;20023;-49
2023/11/25 01:32:09;;;;;;;0.10;0.00;;;;;;;;;;4975531;28;20027;-54
2023/11/25 01:34:35;;;;;;;1.00;0.00;;;;;;;;;;4974860;28;20354;-54
2023/11/25 01:37:01;;;;;;;0.10;0.10;;;;;;;;;;4975451;28;20027;-54
2023/11/25 01:39:27;;;;;;;0.05;0.00;;;;;;;;;;4975517;28;20463;-53
2023/11/25 01:41:54;;;;;;;0.00;0.00;;;;;;;;;;4975237;28;20042;-51
2023/11/25 01:44:22;;;;;;;0.10;0.00;;;;;;;;;;4975472;28;20027;-53
2023/11/25 01:46:48;;;;;;;0.00;0.00;;;;;;;;;;4975566;28;20341;-53
2023/11/25 01:49:15;;;;;;;0.00;0.00;;;;;;;;;;4975158;28;20031;-55
2023/11/25 01:51:45;;;;;;;0.25;0.00;;;;;;;;;;4974393;28;20027;-55
2023/11/25 01:54:14;;;;;;;0.00;0.00;;;;;;;;;;4974703;28;20061;-51
2023/11/25 01:56:40;;;;;;;0.63;0.08;;;;;;;;;;4975000;28;20507;-51
2023/11/25 01:59:07;;;;;;;1.00;0.25;;;;;;;;;;4974877;28;20037;-52
2023/11/25 02:01:33;;;;;;;0.28;0.10;;;;;;;;;;4974853;28;20038;-50
2023/11/25 02:04:00;;;;;;;0.00;0.00;;;;;;;;;;4974285;28;20081;-49
2023/11/25 02:06:26;;;;;;;0.10;0.00;;;;;;;;;;4973993;28;20027;-51
2023/11/25 02:08:52;;;;;;;0.98;0.00;;;;;;;;;;4974305;28;20114;-53
2023/11/25 02:11:18;;;;;;;0.10;0.00;;;;;;;;;;4974053;28;20105;-52
2023/11/25 02:13:44;;;;;;;0.10;0.00;;;;;;;;;;4974229;28;20051;-52
2023/11/25 02:16:13;;;;;;;0.70;0.00;;;;;;;;;;4974625;28;20058;-50
2023/11/25 02:18:39;;;;;;;0.00;0.00;;;;;;;;;;4975162;28;20031;-52
2023/11/25 02:21:05;;;;;;;0.03;0.00;;;;;;;;;;4974476;28;20451;-51
2023/11/25 02:23:31;;;;;;;0.00;0.00;;;;;;;;;;4974575;28;20054;-52
2023/11/25 02:25:57;;;;;;;0.80;0.00;;;;;;;;;;4957129;28;20338;-50
2023/11/25 02:28:26;;;;;;;3.33;0.00;;;;;;;;;;4973877;28;20603;-48
2023/11/25 02:30:52;;;;;;;1.67;0.10;;;;;;;;;;4974418;28;20141;-51
2023/11/25 02:33:18;;;;;;;0.25;0.00;;;;;;;;;;4956785;28;20448;-50
2023/11/25 02:35:48;;;;;;;1.45;0.00;;;;;;;;;;4974497;28;20030;-54
2023/11/25 02:38:14;;;;;;;0.35;0.00;;;;;;;;;;4974276;28;20031;-53
2023/11/25 02:40:43;;;;;;;0.17;0.10;;;;;;;;;;4974283;28;20030;-53
2023/11/25 02:43:11;;;;;;;0.10;0.00;;;;;;;;;;4974378;28;20409;-51
2023/11/25 02:45:37;;;;;;;3.72;0.15;;;;;;;;;;4974212;28;20090;-54
2023/11/25 02:48:09;;;;;;;0.28;0.00;;;;;;;;;;4974094;28;20087;-52
2023/11/25 02:50:35;;;;;;;0.20;0.00;;;;;;;;;;4974288;28;20050;-52
2023/11/25 02:53:01;;;;;;;0.00;0.00;;;;;;;;;;4974059;28;20058;-48
2023/11/25 02:55:27;;;;;;;0.00;0.00;;;;;;;;;;4974174;28;20548;-50
2023/11/25 02:57:53;;;;;;;0.85;0.30;;;;;;;;;;4973044;28;20125;-51
2023/11/25 03:02:49;;;;;;;0.20;0.00;;;;;;;;;;4967051;28;20735;-53
2023/11/25 03:05:16;;;;;;;1.45;0.00;;;;;;;;;;4962686;28;20023;-50
2023/11/25 03:07:42;;;;;;;0.00;0.00;;;;;;;;;;4972756;28;20029;-54
2023/11/25 03:10:09;;;;;;;0.00;0.00;;;;;;;;;;4965769;28;20023;-55
2023/11/25 03:12:35;;;;;;;0.03;0.00;;;;;;;;;;4967135;28;20069;-52
2023/11/25 03:15:02;;;;;;;0.43;0.00;;;;;;;;;;4973602;28;20023;-53
2023/11/25 03:17:29;;;;;;;0.40;0.00;;;;;;;;;;4973828;28;20029;-52
2023/11/25 03:19:55;;;;;;;0.52;0.10;;;;;;;;;;4972895;28;20018;-53
2023/11/25 03:22:22;;;;;;;0.10;0.00;;;;;;;;;;4973447;28;20073;-51
2023/11/25 03:24:48;;;;;;;1.08;0.00;;;;;;;;;;4973328;28;20022;-49
2023/11/25 03:27:15;;;;;;;0.88;0.00;;;;;;;;;;4973538;28;20459;-51
2023/11/25 03:29:41;;;;;;;2.30;0.10;;;;;;;;;;4973124;28;20031;-50
2023/11/25 03:32:07;;;;;;;1.40;0.00;;;;;;;;;;4973553;28;20038;-53
2023/11/25 03:34:35;;;;;;;0.10;0.00;;;;;;;;;;4973449;28;20015;-51
2023/11/25 03:37:01;;;;;;;0.65;0.10;;;;;;;;;;4973103;28;20492;-52
2023/11/25 03:39:27;;;;;;;0.00;0.00;;;;;;;;;;4973225;28;20023;-48
2023/11/25 03:41:53;;;;;;;0.60;0.10;;;;;;;;;;4958903;28;20027;-53
2023/11/25 03:44:19;;;;;;;0.00;0.00;;;;;;;;;;4964108;28;20397;-51
2023/11/25 03:46:45;;;;;;;0.95;0.00;;;;;;;;;;4966538;28;20114;-48
2023/11/25 03:49:12;;;;;;;0.13;0.00;;;;;;;;;;4966374;28;20030;-51
2023/11/25 03:51:38;;;;;;;1.75;0.10;;;;;;;;;;4973728;28;20504;-48
2023/11/25 03:54:04;;;;;;;0.00;0.00;;;;;;;;;;4972948;28;20022;-48
2023/11/25 03:56:31;;;;;;;0.45;0.00;;;;;;;;;;4973146;28;20063;-50
2023/11/25 03:58:57;;;;;;;0.20;0.10;;;;;;;;;;4973007;28;20030;-49
2023/11/25 04:01:23;;;;;;;0.20;0.20;;;;;;;;;;4972352;28;20416;-49
2023/11/25 04:03:49;;;;;;;0.28;0.03;;;;;;;;;;4972967;28;20035;-50
2023/11/25 04:06:15;;;;;;;1.00;0.00;;;;;;;;;;4972876;28;20026;-49
2023/11/25 04:08:41;;;;;;;0.52;0.00;;;;;;;;;;4972894;28;20443;-49
2023/11/25 04:11:07;;;;;;;0.00;0.00;;;;;;;;;;4972703;28;20027;-51
2023/11/25 04:13:33;;;;;;;1.17;0.17;;;;;;;;;;4972577;28;20468;-50
2023/11/25 04:16:03;;;;;;;1.40;0.00;;;;;;;;;;4971738;28;20073;-50
2023/11/25 04:18:29;;;;;;;0.47;0.28;;;;;;;;;;4964626;28;20036;-51
2023/11/25 04:20:55;;;;;;;0.95;0.00;;;;;;;;;;4969298;28;20035;-48
2023/11/25 04:23:21;;;;;;;0.00;0.00;;;;;;;;;;4967149;28;20038;-52
2023/11/25 04:25:47;;;;;;;0.20;0.00;;;;;;;;;;4972493;28;20026;-53
2023/11/25 04:28:13;;;;;;;0.10;0.00;;;;;;;;;;4971600;28;20027;-55
2023/11/25 04:30:39;;;;;;;0.00;0.00;;;;;;;;;;4971533;28;20540;-54
2023/11/25 04:33:09;;;;;;;0.77;0.03;;;;;;;;;;4972575;28;20037;-52
2023/11/25 04:35:36;;;;;;;0.35;0.00;;;;;;;;;;4972656;28;20113;-54
2023/11/25 04:38:03;;;;;;;0.35;0.00;;;;;;;;;;4972709;28;20110;-51
2023/11/25 04:40:29;;;;;;;0.47;0.00;;;;;;;;;;4972288;28;20102;-52
2023/11/25 04:42:55;;;;;;;0.10;0.00;;;;;;;;;;4955361;28;20153;-53
2023/11/25 04:45:21;;;;;;;1.05;0.10;;;;;;;;;;4971662;28;20026;-49
2023/11/25 04:47:48;;;;;;;0.10;0.00;;;;;;;;;;4972316;28;20475;-49
2023/11/25 04:50:14;;;;;;;0.00;0.00;;;;;;;;;;4972080;28;20381;-50
2023/11/25 04:52:42;;;;;;;1.65;0.38;;;;;;;;;;4972432;28;20031;-51
2023/11/25 04:55:12;;;;;;;0.38;0.00;;;;;;;;;;4954840;28;20404;-49
2023/11/25 04:57:38;;;;;;;0.10;0.00;;;;;;;;;;4972570;28;20019;-52
2023/11/25 05:00:10;;;;;;;0.08;0.00;;;;;;;;;;4972279;28;20031;-54
2023/11/25 05:02:39;;;;;;;0.00;0.00;;;;;;;;;;4972300;28;20129;-53
2023/11/25 05:05:05;;;;;;;1.15;0.00;;;;;;;;;;4972254;28;20027;-54
2023/11/25 05:07:31;;;;;;;0.03;0.00;;;;;;;;;;4972180;28;20480;-53
2023/11/25 05:09:58;;;;;;;0.10;0.00;;;;;;;;;;4972182;28;20058;-49
2023/11/25 05:12:24;;;;;;;0.13;0.00;;;;;;;;;;4972017;28;20039;-54
2023/11/25 05:14:50;;;;;;;0.05;0.03;;;;;;;;;;4972149;28;20031;-49
2023/11/25 05:17:16;;;;;;;1.10;0.00;;;;;;;;;;4972064;28;20492;-52
2023/11/25 05:19:42;;;;;;;0.10;0.00;;;;;;;;;;4972218;28;20030;-50
2023/11/25 05:22:09;;;;;;;0.40;0.15;;;;;;;;;;4971687;28;20107;-51
2023/11/25 05:24:35;;;;;;;0.13;0.00;;;;;;;;;;4972037;28;20499;-52
2023/11/25 05:27:01;;;;;;;0.45;0.00;;;;;;;;;;4971898;28;20069;-50
2023/11/25 05:29:27;;;;;;;0.90;0.00;;;;;;;;;;4971431;28;20039;-50
2023/11/25 05:31:53;;;;;;;0.13;0.03;;;;;;;;;;4971315;28;20062;-48
2023/11/25 05:34:20;;;;;;;1.55;0.10;;;;;;;;;;4970812;28;20027;-48
2023/11/25 05:36:46;;;;;;;0.52;0.03;;;;;;;;;;4954941;28;20027;-49
2023/11/25 05:39:13;;;;;;;0.43;0.10;;;;;;;;;;4971997;28;20567;-48
2023/11/25 05:41:40;;;;;;;0.25;0.05;;;;;;;;;;4972712;28;20039;-51
2023/11/25 05:44:10;;;;;;;2.42;0.20;;;;;;;;;;4975177;28;20037;-49
2023/11/25 05:46:36;;;;;;;0.25;0.08;;;;;;;;;;4975318;28;20113;-48
2023/11/25 05:49:04;;;;;;;3.22;0.20;;;;;;;;;;4975160;28;20033;-50
2023/11/25 05:51:34;;;;;;;0.45;0.00;;;;;;;;;;4975286;28;20512;-51
2023/11/25 05:54:00;;;;;;;0.55;0.00;;;;;;;;;;4975087;28;20027;-50
2023/11/25 05:56:26;;;;;;;0.47;0.17;;;;;;;;;;4975170;28;20035;-52
2023/11/25 05:58:58;;;;;;;0.10;0.00;;;;;;;;;;4974772;28;20019;-51
2023/11/25 06:01:26;;;;;;;0.80;0.10;;;;;;;;;;4974578;28;20542;-50
2023/11/25 06:03:52;;;;;;;0.28;0.10;;;;;;;;;;4974166;28;20069;-48
2023/11/25 06:06:21;;;;;;;0.20;0.00;;;;;;;;;;4974184;28;20105;-54
2023/11/25 06:08:47;;;;;;;0.43;0.10;;;;;;;;;;4974352;28;20500;-54
2023/11/25 06:11:19;;;;;;;0.23;0.20;;;;;;;;;;4974126;28;20015;-51
2023/11/25 06:13:45;;;;;;;1.23;0.10;;;;;;;;;;4974433;28;20038;-54
2023/11/25 06:16:11;;;;;;;0.98;0.00;;;;;;;;;;4974822;28;20597;-54
2023/11/25 06:18:37;;;;;;;1.33;0.10;;;;;;;;;;4974506;28;20038;-51
2023/11/25 06:21:04;;;;;;;0.10;0.10;;;;;;;;;;4974482;28;20038;-51
2023/11/25 06:23:30;;;;;;;2.37;0.20;;;;;;;;;;4974339;28;20038;-51
2023/11/25 06:25:56;;;;;;;0.47;0.17;;;;;;;;;;4973541;28;20112;-53
2023/11/25 06:28:24;;;;;;;0.47;0.10;;;;;;;;;;4954808;28;20062;-53
2023/11/25 06:30:53;;;;;;;1.80;0.10;;;;;;;;;;4974090;28;20041;-52
2023/11/25 06:33:25;;;;;;;0.10;0.00;;;;;;;;;;4974350;28;20097;-50
2023/11/25 06:35:55;;;;;;;0.83;0.07;;;;;;;;;;4974580;28;20027;-53
2023/11/25 06:38:21;;;;;;;0.80;0.10;;;;;;;;;;4974300;28;20480;-52
2023/11/25 06:40:47;;;;;;;2.40;0.40;;;;;;;;;;4970464;28;20093;-54
2023/11/25 06:43:15;;;;;;;0.30;0.20;;;;;;;;;;4956852;28;20023;-53
2023/11/25 06:45:41;;;;;;;0.27;0.20;;;;;;;;;;4956625;28;20023;-51
2023/11/25 06:48:10;;;;;;;1.67;0.20;;;;;;;;;;4973659;28;20019;-55
2023/11/25 06:50:36;;;;;;;2.37;0.20;;;;;;;;;;4973081;28;20053;-49
2023/11/25 06:53:03;;;;;;;3.70;0.20;;;;;;;;;;4971867;28;20038;-52
2023/11/25 06:55:29;;;;;;;0.80;0.30;;;;;;;;;;4973252;28;20027;-54
2023/11/25 06:57:55;;;;;;;0.50;0.10;;;;;;;;;;4974348;28;20030;-54
2023/11/25 07:00:22;;;;;;;2.03;0.30;;;;;;;;;;4973390;28;20031;-54
2023/11/25 07:02:49;;;;;;;2.67;0.20;;;;;;;;;;4968715;28;20397;-52
2023/11/25 07:05:15;;;;;;;0.10;0.10;;;;;;;;;;4964496;28;20085;-53
2023/11/25 07:07:42;;;;;;;0.50;0.20;;;;;;;;;;4973262;28;20496;-53
2023/11/25 07:10:10;;;;;;;0.50;0.10;;;;;;;;;;4973206;28;20109;-51
2023/11/25 07:12:37;;;;;;;0.70;0.30;;;;;;;;;;4972940;28;20499;-50
2023/11/25 07:15:04;;;;;;;1.27;0.10;;;;;;;;;;4972873;28;20442;-52
2023/11/25 07:17:30;;;;;;;4.13;0.50;;;;;;;;;;4972077;28;20046;-53
2023/11/25 07:19:56;;;;;;;1.30;0.20;;;;;;;;;;4973269;28;20468;-49
2023/11/25 07:22:22;;;;;;;0.20;0.10;;;;;;;;;;4972427;28;20126;-51
2023/11/25 07:24:48;;;;;;;0.73;0.23;;;;;;;;;;4973163;28;20380;-52
2023/11/25 07:27:18;;;;;;;3.80;0.30;;;;;;;;;;4973513;28;20042;-54
2023/11/25 07:29:44;;;;;;;2.03;0.20;;;;;;;;;;4972695;28;20015;-53
2023/11/25 07:32:12;;;;;;;1.33;0.10;;;;;;;;;;4960426;28;20086;-50
2023/11/25 07:34:38;;;;;;;0.97;0.47;;;;;;;;;;4973388;28;20023;-52
2023/11/25 07:37:05;;;;;;;1.90;0.50;;;;;;;;;;4973445;28;20100;-52
2023/11/25 07:39:33;;;;;;;41.63;16.40;;;;;;;;;;4953063;28;20476;-52
2023/11/25 07:41:59;;;;;;;2.13;0.57;;;;;;;;;;4972113;28;20504;-54
2023/11/25 07:44:31;;;;;;;2.70;0.90;;;;;;;;;;4971731;28;20054;-49
2023/11/25 07:46:58;;;;;;;1.93;0.50;;;;;;;;;;4972066;28;20026;-53
2023/11/25 07:49:24;;;;;;;1.87;0.50;;;;;;;;;;4972166;28;20456;-52
2023/11/25 07:51:50;;;;;;;1.97;0.90;;;;;;;;;;4968943;28;20401;-48
2023/11/25 07:54:16;;;;;;;1.55;0.55;;;;;;;;;;4965007;28;20019;-51
2023/11/25 07:56:42;;;;;;;3.20;0.77;;;;;;;;;;4966905;28;20035;-50
2023/11/25 07:59:09;;;;;;;3.17;0.60;;;;;;;;;;4954865;28;20050;-51
2023/11/25 08:01:36;;;;;;;1.15;0.50;;;;;;;;;;4967934;28;20039;-52
2023/11/25 08:04:02;;;;;;;0.93;0.38;;;;;;;;;;4967930;28;20102;-60
2023/11/25 08:06:28;;;;;;;1.52;0.22;;;;;;;;;;4959252;28;20107;-53
2023/11/25 08:08:54;;;;;;;4.55;2.17;;;;;;;;;;4972132;28;20460;-61
2023/11/25 08:11:23;;;;;;;0.47;0.20;;;;;;;;;;4972402;28;20136;-61
2023/11/25 08:13:50;;;;;;;2.50;0.20;;;;;;;;;;4969339;28;20058;-61
2023/11/25 08:16:16;;;;;;;0.15;0.13;;;;;;;;;;4965767;28;20417;-61
2023/11/25 08:18:42;;;;;;;0.85;0.30;;;;;;;;;;4968732;28;20027;-61
2023/11/25 08:21:08;;;;;;;1.23;0.17;;;;;;;;;;4972665;28;20069;-60
2023/11/25 08:23:34;;;;;;;1.90;0.30;;;;;;;;;;4972870;28;20031;-61
2023/11/25 08:26:00;;;;;;;0.30;0.10;;;;;;;;;;4972579;28;20118;-61
2023/11/25 08:28:27;;;;;;;1.92;1.30;;;;;;;;;;4967238;28;20082;-55
2023/11/25 08:30:52;;;;;;;0.43;0.10;;;;;;;;;;4966023;28;20166;-59
2023/11/25 08:33:19;;;;;;;0.35;0.00;;;;;;;;;;4972242;28;20066;-57
2023/11/25 08:35:45;;;;;;;0.45;0.13;;;;;;;;;;4972173;28;20070;-61
2023/11/25 08:38:11;;;;;;;0.33;0.10;;;;;;;;;;4972485;28;20023;-61
2023/11/25 08:40:40;;;;;;;0.85;0.20;;;;;;;;;;4972191;28;20477;-61
2023/11/25 08:43:11;;;;;;;0.60;0.10;;;;;;;;;;4970168;28;20031;-61
2023/11/25 08:45:38;;;;;;;2.90;0.30;;;;;;;;;;4965478;28;20015;-61
2023/11/25 08:48:07;;;;;;;1.60;0.20;;;;;;;;;;4971949;28;20035;-60
2023/11/25 08:50:34;;;;;;;2.10;0.37;;;;;;;;;;4971710;28;20027;-61
2023/11/25 08:53:02;;;;;;;1.03;0.20;;;;;;;;;;4972178;28;20046;-61
2023/11/25 08:55:28;;;;;;;0.52;0.40;;;;;;;;;;4972427;28;20023;-61
2023/11/25 08:57:54;;;;;;;1.65;0.30;;;;;;;;;;4972529;28;20362;-61
2023/11/25 09:00:20;;;;;;;1.15;0.28;;;;;;;;;;4972480;28;20037;-60
2023/11/25 09:02:48;;;;;;;1.88;0.50;;;;;;;;;;4972440;28;20045;-61
2023/11/25 09:05:14;;;;;;;1.08;0.30;;;;;;;;;;4972370;28;20038;-61
2023/11/25 09:07:43;;;;;;;0.45;0.20;;;;;;;;;;4972405;28;20085;-60
2023/11/25 09:10:10;;;;;;;0.30;0.30;;;;;;;;;;4971861;28;20070;-61
2023/11/25 09:12:36;;;;;;;1.90;0.95;;;;;;;;;;4971637;28;20050;-61
2023/11/25 09:15:08;;;;;;;0.77;0.38;;;;;;;;;;4972207;28;20114;-60
2023/11/25 09:17:38;;;;;;;2.92;0.40;;;;;;;;;;4974676;28;20035;-61
2023/11/25 09:20:07;;;;;;;0.70;0.60;;;;;;;;;;4975979;28;20126;-60
2023/11/25 09:22:33;;;;;;;4.80;0.35;;;;;;;;;;4975663;28;20035;-61
2023/11/25 09:24:59;;;;;;;1.25;0.38;;;;;;;;;;4975761;28;20029;-61
2023/11/25 09:27:25;;;;;;;0.73;0.30;;;;;;;;;;4975940;28;20023;-61
2023/11/25 09:29:51;;;;;;;2.25;0.40;;;;;;;;;;4975559;28;20502;-60
2023/11/25 09:32:18;;;;;;;3.60;0.90;;;;;;;;;;4975570;28;20023;-61
2023/11/25 09:34:44;;;;;;;2.83;0.55;;;;;;;;;;4974681;28;20019;-61
2023/11/25 09:37:11;;;;;;;1.17;0.63;;;;;;;;;;4975514;28;20189;-61
2023/11/25 09:39:37;;;;;;;2.03;0.50;;;;;;;;;;4975218;28;20416;-61
2023/11/25 09:42:03;;;;;;;0.90;0.28;;;;;;;;;;4975008;28;20168;-61
2023/11/25 09:44:29;;;;;;;0.35;0.15;;;;;;;;;;4974621;28;20023;-61
2023/11/25 09:46:56;;;;;;;1.73;0.20;;;;;;;;;;4975065;28;20023;-61
2023/11/25 09:49:22;;;;;;;0.52;0.20;;;;;;;;;;4975553;28;20369;-61
2023/11/25 09:51:48;;;;;;;2.03;0.20;;;;;;;;;;4975257;28;20527;-60
2023/11/25 09:54:22;;;;;;;0.68;0.20;;;;;;;;;;4975307;28;20098;-60
2023/11/25 09:56:51;;;;;;;2.35;0.25;;;;;;;;;;4975214;28;20066;-60
2023/11/25 09:59:20;;;;;;;0.50;0.30;;;;;;;;;;4968069;28;20120;-60
2023/11/25 10:01:48;;;;;;;0.45;0.20;;;;;;;;;;4968753;28;20030;-60
2023/11/25 10:04:14;;;;;;;159.10;10.55;;;;;;;;;;4974950;28;20022;-60
2023/11/25 10:06:40;;;;;;;0.75;0.30;;;;;;;;;;4975567;28;20023;-60
2023/11/25 10:09:09;;;;;;;2.53;0.25;;;;;;;;;;4974818;28;20019;-61
2023/11/25 10:11:35;;;;;;;1.33;0.25;;;;;;;;;;4957485;28;20027;-60
2023/11/25 10:14:03;;;;;;;2.28;0.30;;;;;;;;;;4957404;28;20026;-61
2023/11/25 10:16:29;;;;;;;0.98;0.30;;;;;;;;;;4974999;28;20023;-61
2023/11/25 10:18:58;;;;;;;0.75;0.20;;;;;;;;;;4974872;28;20030;-61
2023/11/25 10:21:24;;;;;;;4.03;0.30;;;;;;;;;;4974956;28;20035;-61
2023/11/25 10:23:54;;;;;;;0.20;0.03;;;;;;;;;;4974739;28;20030;-61
2023/11/25 10:26:20;;;;;;;3.85;0.28;;;;;;;;;;4974708;28;20046;-61
2023/11/25 10:28:46;;;;;;;3.25;0.30;;;;;;;;;;4964407;28;20027;-61
2023/11/25 10:31:14;;;;;;;2.30;0.20;;;;;;;;;;4970103;28;20058;-61
2023/11/25 10:33:40;;;;;;;2.05;0.17;;;;;;;;;;4963075;28;20381;-61
2023/11/25 10:36:08;;;;;;;1.80;0.20;;;;;;;;;;4974566;28;20031;-61
2023/11/25 10:38:34;;;;;;;0.15;0.10;;;;;;;;;;4974529;28;20034;-61
2023/11/25 10:41:01;;;;;;;0.52;0.10;;;;;;;;;;4972281;28;20050;-61
2023/11/25 10:43:28;;;;;;;2.33;0.20;;;;;;;;;;4973819;28;20054;-61
2023/11/25 10:46:12;;;;;;;0.73;0.10;;;;;;;;;;4960777;28;20539;-61
2023/11/25 10:48:38;;;;;;;1.53;0.30;;;;;;;;;;4968965;28;20030;-61
2023/11/25 10:51:05;;;;;;;1.83;0.13;;;;;;;;;;4972133;28;20356;-61
2023/11/25 10:53:35;;;;;;;2.38;0.47;;;;;;;;;;4967589;28;20042;-61
2023/11/25 10:56:03;;;;;;;0.38;0.30;;;;;;;;;;4964705;28;20090;-61
2023/11/25 10:58:30;;;;;;;0.65;0.22;;;;;;;;;;4968664;28;20023;-61
2023/11/25 11:00:57;;;;;;;0.38;0.08;;;;;;;;;;4955486;28;20039;-61
2023/11/25 11:03:43;;;;;;;2.70;0.22;;;;;;;;;;4973183;28;20130;-61
2023/11/25 11:06:11;;;;;;;3.05;0.15;;;;;;;;;;4963293;28;20043;-61
2023/11/25 11:08:40;;;;;;;0.28;0.03;;;;;;;;;;4973133;28;20030;-62
2023/11/25 11:11:16;;;;;;;1.83;0.32;;;;;;;;;;4983031;28;20144;-61
2023/11/25 11:13:43;;;;;;;1.95;0.30;;;;;;;;;;4963438;28;20031;-61
2023/11/25 11:16:23;;;;;;;2.03;0.20;;;;;;;;;;4973541;28;20038;-61
2023/11/25 11:18:50;;;;;;;1.75;0.10;;;;;;;;;;4967931;28;20472;-61
2023/11/25 11:21:17;;;;;;;1.38;0.30;;;;;;;;;;4973748;28;20046;-62
2023/11/25 11:23:43;;;;;;;1.70;0.20;;;;;;;;;;4973621;28;20078;-62
2023/11/25 11:26:12;;;;;;;1.17;0.20;;;;;;;;;;4973478;28;20050;-61
2023/11/25 11:28:53;;;;;;;1.48;0.60;;;;;;;;;;4966305;28;20027;-61
2023/11/25 11:31:31;;;;;;;3.75;0.40;;;;;;;;;;4973293;28;20382;-61
2023/11/25 11:33:57;;;;;;;7.10;0.43;;;;;;;;;;4968740;28;20392;-61
2023/11/25 11:36:30;;;;;;;0.60;0.40;;;;;;;;;;4973315;28;20031;-61
2023/11/25 11:38:56;;;;;;;4.95;0.43;;;;;;;;;;4972946;28;20030;-61
2023/11/25 11:41:22;;;;;;;1.75;0.25;;;;;;;;;;4973155;28;20031;-61
2023/11/25 11:44:02;;;;;;;1.27;0.30;;;;;;;;;;4969088;28;20022;-61
2023/11/25 11:46:29;;;;;;;3.60;0.50;;;;;;;;;;4973175;28;20162;-61
2023/11/25 11:48:55;;;;;;;0.47;0.10;;;;;;;;;;4973004;28;20061;-61
2023/11/25 11:51:23;;;;;;;0.30;0.13;;;;;;;;;;4973111;28;20035;-61
2023/11/25 11:54:09;;;;;;;2.55;0.22;;;;;;;;;;4973016;28;20027;-61
2023/11/25 11:56:54;;;;;;;1.67;0.35;;;;;;;;;;4973547;28;20352;-61
2023/11/25 11:59:20;;;;;;;2.10;0.32;;;;;;;;;;4960917;28;20014;-61
2023/11/25 12:01:46;;;;;;;1.27;0.15;;;;;;;;;;4971655;28;20551;-61
2023/11/25 12:04:13;;;;;;;2.10;0.10;;;;;;;;;;4972634;28;20129;-61
2023/11/25 12:06:39;;;;;;;1.50;0.17;;;;;;;;;;4971376;28;20054;-61
2023/11/25 12:09:05;;;;;;;1.05;0.10;;;;;;;;;;4973244;28;20023;-62
2023/11/25 12:11:31;;;;;;;2.20;0.20;;;;;;;;;;4971379;28;20113;-61
2023/11/25 12:13:57;;;;;;;2.33;0.30;;;;;;;;;;4964792;28;20077;-61
2023/11/25 12:16:23;;;;;;;1.27;0.20;;;;;;;;;;4972826;28;20391;-62
2023/11/25 12:18:49;;;;;;;1.42;0.10;;;;;;;;;;4972389;28;20027;-61
2023/11/25 12:21:15;;;;;;;0.85;0.30;;;;;;;;;;4955230;28;20386;-61
2023/11/25 12:23:41;;;;;;;2.28;0.32;;;;;;;;;;4972542;28;20110;-62
2023/11/25 12:26:07;;;;;;;0.75;0.10;;;;;;;;;;4972514;28;20448;-61
2023/11/25 12:28:42;;;;;;;3.03;0.20;;;;;;;;;;4972348;28;20065;-61
2023/11/25 12:31:08;;;;;;;2.92;0.45;;;;;;;;;;4972414;28;20145;-61
2023/11/25 12:33:35;;;;;;;1.05;0.30;;;;;;;;;;4972338;28;20054;-61
2023/11/25 12:36:02;;;;;;;1.25;0.32;;;;;;;;;;4961260;28;20023;-61
2023/11/25 12:38:31;;;;;;;1.13;0.52;;;;;;;;;;4972357;28;20485;-61
2023/11/25 12:40:57;;;;;;;0.82;0.10;;;;;;;;;;4972354;28;20026;-61
2023/11/25 12:43:23;;;;;;;1.38;0.20;;;;;;;;;;4972397;28;20023;-61
2023/11/25 12:45:49;;;;;;;0.20;0.10;;;;;;;;;;4972345;28;20047;-61
2023/11/25 12:48:29;;;;;;;3.50;0.20;;;;;;;;;;4972126;28;20019;-61
2023/11/25 12:51:00;;;;;;;1.48;0.80;;;;;;;;;;4972324;28;20392;-61
2023/11/25 12:53:26;;;;;;;1.23;0.30;;;;;;;;;;4958752;28;20503;-61
2023/11/25 12:55:52;;;;;;;1.08;0.30;;;;;;;;;;4976219;28;20077;-61
2023/11/25 12:58:20;;;;;;;4.13;0.20;;;;;;;;;;4976257;28;20121;-62
2023/11/25 13:00:46;;;;;;;1.55;0.20;;;;;;;;;;4976112;28;20428;-62
2023/11/25 13:03:12;;;;;;;0.52;0.20;;;;;;;;;;4976127;28;20026;-62
2023/11/25 13:05:39;;;;;;;0.95;0.10;;;;;;;;;;4975982;28;20089;-62
2023/11/25 13:08:21;;;;;;;0.43;0.22;;;;;;;;;;4971213;28;20125;-62
2023/11/25 13:10:47;;;;;;;1.83;0.30;;;;;;;;;;4975968;28;20018;-62
2023/11/25 13:13:14;;;;;;;4.32;0.43;;;;;;;;;;4956387;28;20568;-61
2023/11/25 13:15:40;;;;;;;0.25;0.15;;;;;;;;;;4971955;28;20176;-61
2023/11/25 13:18:07;;;;;;;1.90;0.40;;;;;;;;;;4975625;28;20377;-62
2023/11/25 13:20:34;;;;;;;1.40;0.60;;;;;;;;;;4975759;28;20422;-62
2023/11/25 13:23:00;;;;;;;0.40;0.10;;;;;;;;;;4958274;28;20038;-62
2023/11/25 13:25:26;;;;;;;0.40;0.22;;;;;;;;;;4975676;28;20026;-61
2023/11/25 13:27:52;;;;;;;0.73;0.40;;;;;;;;;;4975612;28;20023;-61
2023/11/25 13:30:18;;;;;;;0.50;0.30;;;;;;;;;;4975125;28;20130;-61
2023/11/25 13:32:46;;;;;;;1.00;0.10;;;;;;;;;;4975540;28;20428;-62
2023/11/25 13:35:12;;;;;;;0.52;0.20;;;;;;;;;;4975565;28;20027;-62
2023/11/25 13:37:38;;;;;;;1.92;0.25;;;;;;;;;;4975744;28;20030;-61
2023/11/25 13:40:12;;;;;;;3.88;0.10;;;;;;;;;;4975296;28;20093;-62
2023/11/25 13:42:38;;;;;;;0.40;0.20;;;;;;;;;;4975496;28;20031;-61
2023/11/25 13:45:04;;;;;;;1.00;0.30;;;;;;;;;;4975221;28;20449;-62
2023/11/25 13:47:30;;;;;;;0.73;0.28;;;;;;;;;;4975501;28;20035;-61
2023/11/25 13:49:56;;;;;;;0.50;0.40;;;;;;;;;;4975323;28;20118;-62
2023/11/25 13:52:22;;;;;;;3.20;0.30;;;;;;;;;;4959754;28;20096;-61
2023/11/25 13:54:48;;;;;;;2.28;0.10;;;;;;;;;;4955989;28;20031;-61
2023/11/25 13:57:14;;;;;;;0.13;0.10;;;;;;;;;;4973696;28;20023;-61
2023/11/25 13:59:40;;;;;;;0.77;0.20;;;;;;;;;;4975123;28;20094;-61
2023/11/25 14:02:06;;;;;;;0.30;0.10;;;;;;;;;;4972875;28;20118;-61
2023/11/25 14:04:32;;;;;;;0.82;0.30;;;;;;;;;;4957706;28;20031;-61
2023/11/25 14:06:59;;;;;;;0.10;0.10;;;;;;;;;;4974790;28;20058;-61
2023/11/25 14:09:26;;;;;;;0.57;0.10;;;;;;;;;;4975131;28;20515;-62
2023/11/25 14:11:52;;;;;;;2.20;0.50;;;;;;;;;;4974855;28;20061;-61
2023/11/25 14:14:18;;;;;;;1.17;0.10;;;;;;;;;;4974564;28;20111;-61
2023/11/25 14:16:51;;;;;;;1.38;0.43;;;;;;;;;;4975108;28;20182;-61
2023/11/25 14:19:17;;;;;;;2.28;0.55;;;;;;;;;;4974615;28;20461;-60
2023/11/25 14:21:43;;;;;;;0.68;0.20;;;;;;;;;;4974774;28;20039;-61
2023/11/25 14:24:09;;;;;;;1.08;0.10;;;;;;;;;;4974733;28;20038;-61
2023/11/25 14:26:36;;;;;;;1.58;0.10;;;;;;;;;;4974864;28;20062;-61
2023/11/25 14:29:02;;;;;;;2.13;0.13;;;;;;;;;;4974522;28;20027;-61
2023/11/25 14:31:32;;;;;;;0.35;0.10;;;;;;;;;;4974464;28;20125;-61
2023/11/25 14:33:58;;;;;;;1.85;0.30;;;;;;;;;;4972171;28;20477;-61
2023/11/25 14:36:25;;;;;;;0.40;0.13;;;;;;;;;;4974541;28;20173;-62
2023/11/25 14:38:51;;;;;;;0.17;0.10;;;;;;;;;;4974603;28;20026;-61
2023/11/25 14:41:24;;;;;;;0.30;0.30;;;;;;;;;;4974244;28;20034;-61
2023/11/25 14:43:51;;;;;;;0.63;0.52;;;;;;;;;;4974451;28;20101;-61
2023/11/25 14:46:17;;;;;;;5.18;0.70;;;;;;;;;;4974131;28;20453;-61